Time;durP1;ratioP1;P1;durP2;ratioP2;P2;SDS_P1;SDS_P2;PMS_P1;PMS_P2;Temp;Humidity;BMP_temperature;BMP_pressure;BME280_temperature;BME280_humidity;BME280_pressure;Samples;Min_cycle;Max_cycle;Signal;HPM_P1;HPM_P2
2021/12/15 00:01:44;;;;;;;35.80;18.80;;;10.40;99.90;;;;;;5105941;28;20027;-73
2021/12/15 00:04:10;;;;;;;38.13;18.33;;;10.40;99.90;;;;;;5110709;28;20043;-74
2021/12/15 00:06:36;;;;;;;35.45;19.23;;;10.40;99.90;;;;;;5093741;28;20032;-73
2021/12/15 00:09:13;;;;;;;37.50;19.63;;;10.50;99.90;;;;;;5094677;28;20070;-74
2021/12/15 00:11:39;;;;;;;37.80;18.38;;;10.60;99.90;;;;;;5094281;28;20442;-73
2021/12/15 00:14:18;;;;;;;36.17;18.45;;;10.60;99.90;;;;;;5108586;28;20483;-74
2021/12/15 00:16:45;;;;;;;38.78;20.77;;;10.60;99.90;;;;;;5091824;28;20038;-74
2021/12/15 00:19:12;;;;;;;32.25;18.20;;;10.60;99.90;;;;;;5094838;28;20403;-74
2021/12/15 00:21:38;;;;;;;33.50;18.25;;;10.60;99.90;;;;;;5110771;28;20027;-74
2021/12/15 00:24:06;;;;;;;28.20;15.55;;;10.60;99.90;;;;;;5094891;28;20503;-74
2021/12/15 00:26:31;;;;;;;30.75;17.30;;;10.70;99.90;;;;;;5109908;28;20032;-74
2021/12/15 00:28:57;;;;;;;27.10;15.13;;;10.80;99.90;;;;;;5093681;28;20039;-74
2021/12/15 00:31:23;;;;;;;32.05;18.00;;;10.80;99.90;;;;;;5094068;28;20044;-74
2021/12/15 00:33:49;;;;;;;33.35;18.40;;;10.70;99.90;;;;;;5111507;28;20073;-74
2021/12/15 00:36:15;;;;;;;34.83;19.15;;;10.70;99.90;;;;;;5093548;28;20052;-74
2021/12/15 00:38:42;;;;;;;32.13;18.98;;;10.70;99.90;;;;;;5093240;28;20040;-74
2021/12/15 00:41:08;;;;;;;35.17;18.60;;;10.60;99.90;;;;;;5094604;28;20039;-74
2021/12/15 00:43:34;;;;;;;35.10;18.90;;;10.60;99.90;;;;;;5092993;28;20031;-73
2021/12/15 00:46:00;;;;;;;36.70;20.17;;;10.60;99.90;;;;;;5091681;28;20067;-74
2021/12/15 00:48:27;;;;;;;32.60;18.45;;;10.60;99.90;;;;;;5094407;28;20082;-74
2021/12/15 00:50:52;;;;;;;31.65;16.52;;;10.60;99.90;;;;;;5093363;28;20032;-74
2021/12/15 00:53:18;;;;;;;31.83;17.42;;;10.60;99.90;;;;;;5111435;28;20044;-74
2021/12/15 00:55:44;;;;;;;38.53;21.48;;;10.80;99.90;;;;;;5110540;28;20168;-73
2021/12/15 00:58:11;;;;;;;31.35;18.40;;;10.60;99.90;;;;;;5111158;28;20047;-74
2021/12/15 01:00:44;;;;;;;35.58;20.60;;;10.70;99.90;;;;;;5094141;28;20108;-74
2021/12/15 01:03:10;;;;;;;38.25;20.40;;;10.70;99.90;;;;;;5094806;28;20432;-73
2021/12/15 01:05:39;;;;;;;33.45;18.25;;;10.60;99.90;;;;;;5109550;28;20031;-73
2021/12/15 01:08:09;;;;;;;34.78;18.75;;;10.70;99.90;;;;;;5094261;28;20495;-74
2021/12/15 01:11:16;;;;;;;34.22;19.73;;;10.70;99.90;;;;;;5108186;28;20157;-74
2021/12/15 01:21:57;;;;;;;31.27;19.20;;;10.60;99.90;;;;;;5106956;28;20036;-73
2021/12/15 01:24:23;;;;;;;27.08;16.58;;;10.60;99.90;;;;;;5108837;28;20039;-74
2021/12/15 01:26:49;;;;;;;33.55;16.90;;;10.70;99.90;;;;;;5091590;28;20118;-74
2021/12/15 01:29:14;;;;;;;27.48;16.35;;;10.60;99.90;;;;;;5110986;28;20035;-74
2021/12/15 01:31:40;;;;;;;36.92;20.75;;;10.70;99.90;;;;;;5109009;28;20039;-74
2021/12/15 01:34:06;;;;;;;36.25;19.15;;;10.60;99.90;;;;;;5094200;28;20122;-73
2021/12/15 01:36:32;;;;;;;32.10;17.73;;;10.70;99.90;;;;;;5112427;28;20055;-73
2021/12/15 01:38:57;;;;;;;31.08;18.98;;;10.70;99.90;;;;;;5115899;28;20035;-74
2021/12/15 01:41:24;;;;;;;29.50;17.33;;;10.70;99.90;;;;;;5111830;28;20038;-73
2021/12/15 01:49:20;;;;;;;33.92;16.83;;;10.60;99.90;;;;;;5114751;28;20248;-74
2021/12/15 01:51:46;;;;;;;34.25;19.38;;;10.70;99.90;;;;;;5113359;28;20039;-74
2021/12/15 01:54:13;;;;;;;32.28;19.33;;;10.60;99.90;;;;;;5097416;28;20380;-74
2021/12/15 01:56:39;;;;;;;33.15;19.25;;;10.60;99.90;;;;;;5095880;28;20054;-74
2021/12/15 01:59:06;;;;;;;35.42;19.13;;;10.60;99.90;;;;;;5097464;28;20055;-74
2021/12/15 02:01:32;;;;;;;31.75;18.15;;;10.70;99.90;;;;;;5096784;28;20404;-74
2021/12/15 02:03:58;;;;;;;32.30;17.63;;;10.60;99.90;;;;;;5114464;28;20028;-74
2021/12/15 02:06:25;;;;;;;33.67;17.77;;;10.70;99.90;;;;;;5112724;28;20558;-74
2021/12/15 02:08:51;;;;;;;28.42;15.77;;;10.70;99.90;;;;;;5093427;28;20114;-74
2021/12/15 02:11:17;;;;;;;29.50;17.50;;;10.80;99.90;;;;;;5095790;28;20036;-74
2021/12/15 02:13:43;;;;;;;32.90;18.55;;;10.70;99.90;;;;;;5096606;28;20098;-73
2021/12/15 02:16:09;;;;;;;31.70;17.48;;;10.70;99.90;;;;;;5096659;28;20040;-74
2021/12/15 02:18:37;;;;;;;34.05;18.48;;;10.80;99.90;;;;;;5113828;28;20100;-74
2021/12/15 02:21:14;;;;;;;34.80;21.02;;;10.80;99.90;;;;;;5093406;28;20031;-74
2021/12/15 02:23:45;;;;;;;33.92;19.08;;;10.70;99.90;;;;;;5095567;28;20036;-74
2021/12/15 02:26:18;;;;;;;31.40;18.57;;;10.70;99.90;;;;;;5095959;28;20181;-74
2021/12/15 02:28:47;;;;;;;33.70;19.13;;;10.70;99.90;;;;;;5096043;28;20027;-74
2021/12/15 02:39:25;;;;;;;34.03;19.98;;;10.80;99.90;;;;;;5111501;28;20116;-74
2021/12/15 02:41:51;;;;;;;38.55;21.13;;;10.70;99.90;;;;;;5111949;28;20035;-74
2021/12/15 02:44:20;;;;;;;31.73;18.15;;;10.70;99.90;;;;;;5113462;28;20084;-74
2021/12/15 02:46:47;;;;;;;35.70;17.45;;;10.70;99.90;;;;;;5093313;28;20387;-73
2021/12/15 02:49:17;;;;;;;35.97;19.85;;;10.80;99.90;;;;;;5095289;28;20050;-73
2021/12/15 02:51:45;;;;;;;38.92;21.73;;;10.80;99.90;;;;;;5111368;28;20039;-74
2021/12/15 02:54:14;;;;;;;38.33;20.92;;;10.70;99.90;;;;;;5095449;28;20085;-73
2021/12/15 02:56:42;;;;;;;30.95;18.30;;;10.70;99.90;;;;;;5096117;28;20038;-74
2021/12/15 02:59:09;;;;;;;38.53;21.75;;;10.80;99.90;;;;;;5094428;28;20047;-74
2021/12/15 03:04:42;;;;;;;36.85;20.95;;;10.70;99.90;;;;;;5147284;27;20483;-74
2021/12/15 03:07:33;;;;;;;40.13;22.65;;;10.70;99.90;;;;;;5092868;28;20400;-74
2021/12/15 03:15:33;;;;;;;35.78;20.98;;;10.90;99.90;;;;;;5112749;28;20047;-74
2021/12/15 03:18:10;;;;;;;34.40;20.17;;;10.80;99.90;;;;;;5109068;28;20065;-74
2021/12/15 03:21:01;;;;;;;34.40;19.65;;;10.70;99.90;;;;;;5095605;28;20063;-74
2021/12/15 03:23:35;;;;;;;39.13;22.13;;;10.80;99.90;;;;;;5085662;28;20043;-74
2021/12/15 03:26:02;;;;;;;35.05;20.23;;;10.70;99.90;;;;;;5094468;28;20142;-74
2021/12/15 03:39:29;;;;;;;35.93;19.47;;;10.90;99.90;;;;;;5111414;28;20495;-74
2021/12/15 03:42:00;;;;;;;40.72;22.10;;;10.90;99.90;;;;;;5109439;28;20057;-74
2021/12/15 03:44:28;;;;;;;39.75;20.80;;;10.70;99.90;;;;;;5111316;28;20104;-74
2021/12/15 03:46:53;;;;;;;38.88;20.63;;;10.80;99.90;;;;;;5095396;28;20107;-74
2021/12/15 03:49:19;;;;;;;36.45;19.05;;;10.80;99.90;;;;;;5092976;28;20130;-74
2021/12/15 03:51:45;;;;;;;43.30;21.67;;;10.90;99.90;;;;;;5109683;28;20036;-74
2021/12/15 03:54:11;;;;;;;40.53;21.60;;;10.80;99.90;;;;;;5111233;28;20494;-74
2021/12/15 03:56:40;;;;;;;34.72;18.58;;;10.80;99.90;;;;;;5095092;28;20071;-74
2021/12/15 03:59:05;;;;;;;40.58;20.95;;;10.80;99.90;;;;;;5110265;28;20472;-74
2021/12/15 04:01:31;;;;;;;40.60;20.77;;;10.80;99.90;;;;;;5094071;28;20039;-74
2021/12/15 04:03:56;;;;;;;46.58;24.42;;;10.80;99.90;;;;;;5094137;28;20444;-74
2021/12/15 04:06:27;;;;;;;40.85;22.05;;;10.70;99.90;;;;;;5127599;27;20032;-74
2021/12/15 04:08:54;;;;;;;40.95;22.15;;;10.70;99.90;;;;;;5093415;28;20028;-74
2021/12/15 04:11:22;;;;;;;42.65;23.02;;;10.70;99.90;;;;;;5091722;28;20032;-74
2021/12/15 04:13:49;;;;;;;42.15;22.33;;;10.70;99.90;;;;;;5111012;28;20483;-74
2021/12/15 04:16:43;;;;;;;43.17;22.08;;;10.70;99.90;;;;;;5094760;28;20032;-74
2021/12/15 04:19:07;;;;;;;38.92;21.30;;;10.70;99.90;;;;;;5105444;28;20043;-74
2021/12/15 04:21:34;;;;;;;42.88;22.83;;;10.80;99.90;;;;;;5109992;28;20063;-74
2021/12/15 04:24:00;;;;;;;40.13;21.27;;;10.70;99.90;;;;;;5091980;28;20034;-74
2021/12/15 04:26:26;;;;;;;43.58;22.27;;;10.70;99.90;;;;;;5092287;28;20043;-74
2021/12/15 04:28:52;;;;;;;45.42;24.83;;;10.70;99.90;;;;;;5094035;28;20457;-74
2021/12/15 04:31:22;;;;;;;46.00;23.58;;;10.60;99.90;;;;;;5111493;28;20088;-74
2021/12/15 04:33:55;;;;;;;40.70;23.05;;;10.60;99.90;;;;;;5108805;28;20023;-74
2021/12/15 04:36:24;;;;;;;45.15;24.20;;;10.60;99.90;;;;;;5104077;28;20404;-74
2021/12/15 04:38:51;;;;;;;42.08;21.65;;;10.60;99.90;;;;;;5092885;28;20399;-74
2021/12/15 04:41:20;;;;;;;46.83;24.25;;;10.70;99.90;;;;;;5110700;28;20039;-74
2021/12/15 04:43:56;;;;;;;46.28;25.13;;;10.60;99.90;;;;;;5093780;28;20034;-74
2021/12/15 04:46:24;;;;;;;44.78;25.25;;;10.60;99.90;;;;;;5092905;28;20068;-74
2021/12/15 04:48:50;;;;;;;45.85;25.73;;;10.70;99.90;;;;;;5116673;28;20559;-75
2021/12/15 04:51:18;;;;;;;40.38;22.38;;;10.50;99.90;;;;;;5092373;28;20126;-74
2021/12/15 04:53:44;;;;;;;43.00;22.60;;;10.70;99.90;;;;;;5106726;28;20093;-74
2021/12/15 04:56:10;;;;;;;41.97;23.77;;;10.60;99.90;;;;;;5109480;28;20032;-74
2021/12/15 04:58:35;;;;;;;43.08;20.95;;;10.70;99.90;;;;;;5091450;28;20108;-74
2021/12/15 05:01:05;;;;;;;29.38;16.25;;;10.70;99.90;;;;;;5111635;28;20549;-74
2021/12/15 05:03:31;;;;;;;43.85;25.67;;;10.70;99.90;;;;;;5091386;28;20039;-74
2021/12/15 05:05:57;;;;;;;42.92;22.52;;;10.60;99.90;;;;;;5103992;28;20036;-74
2021/12/15 05:08:22;;;;;;;46.83;24.05;;;10.60;99.90;;;;;;5089357;28;20039;-74
2021/12/15 05:10:50;;;;;;;47.15;25.92;;;10.60;99.90;;;;;;5097265;28;20188;-74
2021/12/15 05:13:16;;;;;;;46.05;23.90;;;10.60;99.90;;;;;;5096137;28;20098;-74
2021/12/15 05:15:42;;;;;;;50.45;25.38;;;10.50;99.90;;;;;;5100671;28;20261;-74
2021/12/15 05:18:08;;;;;;;41.92;24.15;;;10.60;99.90;;;;;;5123259;27;20028;-74
2021/12/15 05:20:36;;;;;;;41.85;22.88;;;10.60;99.90;;;;;;5121142;27;20044;-74
2021/12/15 05:23:03;;;;;;;38.92;21.67;;;10.70;99.90;;;;;;5096730;28;20031;-74
2021/12/15 05:25:29;;;;;;;42.75;23.70;;;10.70;99.90;;;;;;5114811;28;20484;-74
2021/12/15 05:27:56;;;;;;;44.88;22.88;;;10.70;99.90;;;;;;5092730;28;21761;-74
2021/12/15 05:30:22;;;;;;;43.08;24.83;;;10.60;99.90;;;;;;5108196;28;20051;-74
2021/12/15 05:32:48;;;;;;;43.38;20.00;;;10.70;99.90;;;;;;5094265;28;20479;-74
2021/12/15 05:35:20;;;;;;;41.58;24.70;;;10.80;99.90;;;;;;5110508;28;20056;-74
2021/12/15 05:37:47;;;;;;;39.15;21.80;;;10.70;99.90;;;;;;5096843;28;20088;-75
2021/12/15 05:40:13;;;;;;;47.78;25.25;;;10.80;99.90;;;;;;5092598;28;20074;-75
2021/12/15 05:42:39;;;;;;;45.70;24.15;;;10.70;99.90;;;;;;5144235;27;20274;-75
2021/12/15 05:45:06;;;;;;;43.78;21.33;;;10.70;99.90;;;;;;5095161;28;20070;-74
2021/12/15 05:47:32;;;;;;;47.88;25.85;;;10.60;99.90;;;;;;5110461;28;20047;-74
2021/12/15 05:49:57;;;;;;;50.30;26.05;;;10.70;99.90;;;;;;5112225;28;20065;-74
2021/12/15 05:52:30;;;;;;;45.08;24.75;;;10.60;99.90;;;;;;5123742;27;20130;-74
2021/12/15 05:54:56;;;;;;;46.15;25.90;;;10.70;99.90;;;;;;5094085;28;20028;-74
2021/12/15 05:57:22;;;;;;;46.90;25.83;;;10.60;99.90;;;;;;5127153;27;20035;-74
2021/12/15 05:59:48;;;;;;;43.17;24.40;;;10.60;99.90;;;;;;5113709;28;20085;-74
2021/12/15 06:02:14;;;;;;;46.85;25.35;;;10.60;99.90;;;;;;5110521;28;20528;-74
2021/12/15 06:04:39;;;;;;;51.17;26.98;;;10.60;99.90;;;;;;5113465;28;20114;-74
2021/12/15 06:07:05;;;;;;;47.88;27.50;;;10.50;99.90;;;;;;5112047;28;20051;-74
2021/12/15 06:09:32;;;;;;;54.85;27.92;;;10.50;99.90;;;;;;5111992;28;20036;-74
2021/12/15 06:11:59;;;;;;;44.42;26.20;;;10.50;99.90;;;;;;5112377;28;20058;-74
2021/12/15 06:14:27;;;;;;;44.83;23.70;;;10.50;99.90;;;;;;5123588;27;20047;-74
2021/12/15 06:16:56;;;;;;;44.65;25.27;;;10.60;99.90;;;;;;5096195;28;20068;-74
2021/12/15 06:19:22;;;;;;;45.92;24.38;;;10.60;99.90;;;;;;5127103;27;20027;-74
2021/12/15 06:21:48;;;;;;;39.20;22.02;;;10.60;99.90;;;;;;5093432;28;20490;-74
2021/12/15 06:24:13;;;;;;;46.15;27.13;;;10.60;99.90;;;;;;5107296;28;20051;-74
2021/12/15 06:26:39;;;;;;;44.10;25.85;;;10.60;99.90;;;;;;5110451;28;20036;-74
2021/12/15 06:29:05;;;;;;;46.58;25.10;;;10.60;99.90;;;;;;5110526;28;20032;-74
2021/12/15 06:31:31;;;;;;;48.20;29.33;;;10.60;99.90;;;;;;5094767;28;20480;-74
2021/12/15 06:33:56;;;;;;;42.90;23.80;;;10.70;99.90;;;;;;5094961;28;20396;-74
2021/12/15 06:36:22;;;;;;;44.47;27.65;;;10.70;99.90;;;;;;5110495;28;20048;-74
2021/12/15 06:38:51;;;;;;;42.15;24.00;;;10.70;99.90;;;;;;5108757;28;20472;-74
2021/12/15 06:41:17;;;;;;;45.20;25.63;;;10.70;99.90;;;;;;5108645;28;20381;-74
2021/12/15 06:43:48;;;;;;;43.17;24.65;;;10.60;99.90;;;;;;5112400;28;20503;-74
2021/12/15 06:57:35;;;;;;;45.15;26.15;;;10.70;99.90;;;;;;5110406;28;20081;-74
2021/12/15 07:00:13;;;;;;;37.25;19.48;;;10.50;99.90;;;;;;5093437;28;20172;-74
2021/12/15 07:02:40;;;;;;;35.30;18.40;;;10.70;99.90;;;;;;5110361;28;20488;-74
2021/12/15 07:05:10;;;;;;;47.25;25.35;;;10.70;99.90;;;;;;5094250;28;20031;-74
2021/12/15 07:07:37;;;;;;;42.47;22.85;;;10.50;99.90;;;;;;5110506;28;20047;-74
2021/12/15 07:10:05;;;;;;;46.45;25.25;;;10.60;99.90;;;;;;5089190;28;20111;-74
2021/12/15 07:12:30;;;;;;;40.90;21.77;;;10.60;99.90;;;;;;5110661;28;20044;-74
2021/12/15 07:14:56;;;;;;;45.78;24.15;;;10.60;99.90;;;;;;5094877;28;20529;-74
2021/12/15 07:17:24;;;;;;;46.00;25.60;;;10.60;99.90;;;;;;5093648;28;20042;-74
2021/12/15 07:25:01;;;;;;;45.90;26.20;;;10.50;99.90;;;;;;5106603;28;20048;-74
2021/12/15 07:27:26;;;;;;;47.85;26.00;;;10.50;99.90;;;;;;5094735;28;20118;-74
2021/12/15 07:29:52;;;;;;;43.65;24.88;;;10.40;99.90;;;;;;5111309;28;20652;-74
2021/12/15 07:32:18;;;;;;;48.00;25.33;;;10.50;99.90;;;;;;5111315;28;20556;-74
2021/12/15 07:34:44;;;;;;;43.03;25.92;;;10.50;99.90;;;;;;5091691;28;20047;-74
2021/12/15 07:37:10;;;;;;;41.10;24.20;;;10.50;99.90;;;;;;5107738;28;20089;-74
2021/12/15 07:39:37;;;;;;;39.63;21.90;;;10.40;99.90;;;;;;5105795;28;20040;-74
2021/12/15 07:42:07;;;;;;;43.28;25.98;;;10.50;99.90;;;;;;5107629;28;20039;-74
2021/12/15 07:44:34;;;;;;;36.67;21.00;;;10.60;99.90;;;;;;5091816;27;20134;-74
2021/12/15 07:47:00;;;;;;;39.10;22.02;;;10.70;99.90;;;;;;5092204;28;20038;-74
2021/12/15 07:49:26;;;;;;;36.60;23.60;;;10.70;99.90;;;;;;5108489;28;20070;-75
2021/12/15 07:52:00;;;;;;;38.05;22.77;;;10.70;99.90;;;;;;5110454;28;20039;-73
2021/12/15 07:54:34;;;;;;;38.33;21.85;;;10.60;99.90;;;;;;5093219;28;20043;-73
2021/12/15 07:57:03;;;;;;;38.65;21.73;;;10.60;99.90;;;;;;5112345;28;20460;-73
2021/12/15 07:59:28;;;;;;;39.90;22.02;;;10.60;99.90;;;;;;5094263;28;20039;-73
2021/12/15 08:01:54;;;;;;;38.47;22.52;;;10.60;99.90;;;;;;5112288;28;20031;-73
2021/12/15 08:04:20;;;;;;;33.90;18.42;;;10.50;99.90;;;;;;5093727;28;20043;-73
2021/12/15 08:06:46;;;;;;;36.97;20.42;;;10.70;99.90;;;;;;5095051;28;20065;-73
2021/12/15 08:09:13;;;;;;;36.33;18.27;;;10.70;99.90;;;;;;5111111;28;20035;-73
2021/12/15 08:11:40;;;;;;;31.55;18.67;;;10.70;99.90;;;;;;5091727;28;20043;-73
2021/12/15 08:14:06;;;;;;;32.53;18.83;;;10.70;99.90;;;;;;5110925;28;20123;-73
2021/12/15 08:16:32;;;;;;;34.47;17.35;;;10.70;99.90;;;;;;5094155;28;20395;-73
2021/12/15 08:18:58;;;;;;;29.25;16.27;;;10.70;99.90;;;;;;5110327;28;20118;-73
2021/12/15 08:21:24;;;;;;;31.27;15.95;;;10.70;99.90;;;;;;5111823;28;20031;-73
2021/12/15 08:23:50;;;;;;;33.42;20.67;;;10.70;99.90;;;;;;5094013;28;20035;-73
2021/12/15 08:26:15;;;;;;;37.17;19.67;;;10.70;99.90;;;;;;5094721;28;20172;-73
2021/12/15 08:28:41;;;;;;;33.33;19.92;;;10.60;99.90;;;;;;5093756;28;20036;-73
2021/12/15 08:31:07;;;;;;;31.60;16.60;;;10.70;99.90;;;;;;5109544;28;20032;-73
2021/12/15 08:33:34;;;;;;;30.52;17.35;;;10.80;99.90;;;;;;5107262;28;20487;-73
2021/12/15 08:36:09;;;;;;;27.30;16.17;;;10.80;99.90;;;;;;5093540;28;20443;-73
2021/12/15 08:38:37;;;;;;;32.58;16.02;;;10.80;99.90;;;;;;5108569;28;20035;-73
2021/12/15 08:41:06;;;;;;;34.45;17.92;;;10.90;99.90;;;;;;5110564;28;20495;-73
2021/12/15 08:43:33;;;;;;;34.97;19.38;;;10.80;99.90;;;;;;5090614;28;20454;-73
2021/12/15 08:46:10;;;;;;;36.10;18.98;;;10.80;99.90;;;;;;5114278;28;20479;-73
2021/12/15 08:48:37;;;;;;;30.65;17.63;;;10.80;99.90;;;;;;5098695;28;20130;-73
2021/12/15 08:51:04;;;;;;;34.80;18.23;;;10.90;99.90;;;;;;5114842;28;20035;-73
2021/12/15 08:53:30;;;;;;;31.55;18.02;;;10.80;99.90;;;;;;5098607;28;20040;-73
2021/12/15 08:55:56;;;;;;;29.42;15.40;;;10.80;99.90;;;;;;5097510;28;20028;-73
2021/12/15 08:58:24;;;;;;;37.08;19.73;;;10.80;99.90;;;;;;5146662;27;20043;-73
2021/12/15 09:00:53;;;;;;;34.70;20.67;;;10.70;99.90;;;;;;5097230;28;20038;-73
2021/12/15 09:03:20;;;;;;;30.13;17.02;;;10.70;99.90;;;;;;5100257;28;20042;-73
2021/12/15 09:05:46;;;;;;;31.65;18.23;;;10.90;99.90;;;;;;5113524;28;20551;-73
2021/12/15 09:08:12;;;;;;;31.35;17.70;;;10.80;99.90;;;;;;5098361;28;20035;-73
2021/12/15 09:10:42;;;;;;;29.17;16.60;;;10.70;99.90;;;;;;5097714;28;20369;-73
2021/12/15 09:13:08;;;;;;;28.70;15.25;;;10.80;99.90;;;;;;5115361;28;20447;-73
2021/12/15 09:15:34;;;;;;;35.63;19.25;;;10.80;99.90;;;;;;5097350;28;20035;-73
2021/12/15 09:18:00;;;;;;;32.97;18.40;;;10.70;99.90;;;;;;5095537;28;20067;-73
2021/12/15 09:20:30;;;;;;;32.95;16.65;;;10.80;99.90;;;;;;5115202;28;20028;-73
2021/12/15 09:22:58;;;;;;;32.88;18.92;;;10.90;99.90;;;;;;5113939;28;20077;-73
2021/12/15 09:25:24;;;;;;;31.48;19.00;;;10.80;99.90;;;;;;5115472;27;20042;-73
2021/12/15 09:27:50;;;;;;;33.00;18.45;;;10.80;99.90;;;;;;5097448;28;20044;-73
2021/12/15 09:30:19;;;;;;;30.85;18.98;;;10.80;99.90;;;;;;5098067;28;20499;-73
2021/12/15 09:32:47;;;;;;;30.70;18.15;;;10.80;99.90;;;;;;5096561;28;20482;-73
2021/12/15 09:35:14;;;;;;;33.10;18.00;;;10.90;99.90;;;;;;5097194;28;20048;-73
2021/12/15 09:37:40;;;;;;;28.98;15.55;;;10.80;99.90;;;;;;5114798;28;20071;-73
2021/12/15 09:40:08;;;;;;;27.08;15.15;;;10.90;99.90;;;;;;5095848;28;20523;-73
2021/12/15 09:42:38;;;;;;;32.45;18.85;;;10.80;99.90;;;;;;5097779;28;20107;-73
2021/12/15 10:06:48;;;;;;;28.08;16.10;;;10.70;99.90;;;;;;5144635;27;20429;-73
2021/12/15 10:18:07;;;;;;;25.30;14.68;;;10.70;99.90;;;;;;5113923;28;20403;-73
2021/12/15 10:20:36;;;;;;;26.45;13.25;;;10.70;99.90;;;;;;5112853;28;20036;-73
2021/12/15 10:23:05;;;;;;;24.40;13.85;;;10.80;99.90;;;;;;5094315;28;20123;-73
2021/12/15 10:25:43;;;;;;;24.77;13.35;;;10.80;99.90;;;;;;5112254;28;20046;-73
2021/12/15 10:28:10;;;;;;;26.83;15.07;;;10.90;99.90;;;;;;5091787;28;20048;-73
2021/12/15 10:30:48;;;;;;;23.85;14.63;;;10.80;99.90;;;;;;5112316;28;20035;-73
2021/12/15 10:33:36;;;;;;;28.00;13.57;;;10.80;99.90;;;;;;5093380;28;20031;-73
2021/12/15 10:36:08;;;;;;;25.42;12.70;;;10.90;99.90;;;;;;5109535;28;20059;-73
2021/12/15 10:38:43;;;;;;;27.30;15.07;;;11.00;99.90;;;;;;5094780;28;20040;-73
2021/12/15 10:41:14;;;;;;;27.45;13.43;;;11.00;99.90;;;;;;5111666;28;20071;-73
2021/12/15 10:43:39;;;;;;;29.35;12.65;;;11.10;99.90;;;;;;5111540;28;20055;-78
2021/12/15 10:46:12;;;;;;;25.20;15.05;;;11.10;99.90;;;;;;5096812;28;20063;-73
2021/12/15 10:48:48;;;;;;;22.70;11.43;;;11.00;99.90;;;;;;5111462;28;20066;-72
2021/12/15 10:51:34;;;;;;;24.08;13.40;;;11.20;99.90;;;;;;5105412;28;20036;-72
2021/12/15 10:54:12;;;;;;;24.48;13.20;;;11.20;99.90;;;;;;5092652;28;20047;-73
2021/12/15 10:56:42;;;;;;;24.90;14.27;;;11.10;99.90;;;;;;5110380;28;20442;-73
2021/12/15 10:59:13;;;;;;;24.77;14.30;;;11.10;99.90;;;;;;5111209;28;20043;-73
2021/12/15 11:02:05;;;;;;;21.27;13.25;;;11.10;99.90;;;;;;5113540;28;20047;-72
2021/12/15 11:04:36;;;;;;;;;;;11.00;99.90;;;;;;5095734;28;20063;-73
2021/12/15 11:07:19;;;;;;;25.13;12.50;;;11.10;99.90;;;;;;5093441;28;20295;-73
2021/12/15 11:10:06;;;;;;;22.45;11.93;;;11.10;99.90;;;;;;5113063;28;20043;-73
2021/12/15 11:12:42;;;;;;;26.38;13.30;;;11.10;99.90;;;;;;5092591;28;20488;-73
2021/12/15 11:15:16;;;;;;;25.00;10.38;;;11.10;99.90;;;;;;5112460;28;20084;-73
2021/12/15 11:17:48;;;;;;;21.80;11.60;;;11.10;99.90;;;;;;5093220;28;20098;-73
2021/12/15 11:20:24;;;;;;;21.00;11.30;;;11.10;99.90;;;;;;5095514;28;20063;-73
2021/12/15 11:23:09;;;;;;;16.60;7.95;;;11.10;99.90;;;;;;5090483;28;20050;-73
2021/12/15 11:25:50;;;;;;;20.98;9.70;;;11.30;99.90;;;;;;5125819;27;20066;-73
2021/12/15 11:28:28;;;;;;;21.83;11.18;;;11.20;99.90;;;;;;5094982;28;20400;-72
2021/12/15 11:31:02;;;;;;;19.92;10.57;;;11.10;99.90;;;;;;5140329;27;20481;-73
2021/12/15 11:33:48;;;;;;;19.42;10.45;;;11.20;99.90;;;;;;5109305;28;20502;-73
2021/12/15 11:36:16;;;;;;;18.38;9.60;;;11.00;99.90;;;;;;5091554;28;20097;-73
2021/12/15 11:38:51;;;;;;;15.40;7.68;;;11.00;99.90;;;;;;5095043;28;20044;-73
2021/12/15 11:41:34;;;;;;;21.17;9.90;;;11.20;99.90;;;;;;5110730;28;20399;-73
2021/12/15 11:44:02;;;;;;;19.48;9.82;;;11.10;99.90;;;;;;5092262;28;20032;-73
2021/12/15 11:46:44;;;;;;;17.52;9.63;;;11.00;99.90;;;;;;5111108;28;20038;-73
2021/12/15 11:49:19;;;;;;;18.10;8.98;;;11.00;99.90;;;;;;5093358;28;20084;-73
2021/12/15 11:51:44;;;;;;;17.38;8.98;;;11.00;99.90;;;;;;5105131;28;20403;-73
2021/12/15 11:54:26;;;;;;;18.52;8.65;;;10.90;99.90;;;;;;5122201;27;20050;-72
2021/12/15 11:57:08;;;;;;;14.60;7.90;;;11.00;99.90;;;;;;5090966;28;20031;-73
2021/12/15 11:59:33;;;;;;;15.45;8.60;;;11.00;99.90;;;;;;5112155;28;20039;-72
2021/12/15 12:02:04;;;;;;;14.98;7.63;;;11.00;99.90;;;;;;5094210;28;20483;-73
2021/12/15 12:04:35;;;;;;;15.82;7.85;;;11.00;99.90;;;;;;5092783;28;20028;-73
2021/12/15 12:07:25;;;;;;;15.15;8.02;;;11.00;99.90;;;;;;5092994;28;20035;-73
2021/12/15 12:09:56;;;;;;;14.95;7.50;;;10.90;99.90;;;;;;5093673;28;20093;-73
2021/12/15 12:12:26;;;;;;;16.42;6.88;;;11.00;99.90;;;;;;5092870;28;20399;-73
2021/12/15 12:14:52;;;;;;;13.80;6.55;;;11.00;99.90;;;;;;5111514;28;20074;-73
2021/12/15 12:17:19;;;;;;;15.25;7.53;;;11.10;99.90;;;;;;5104699;28;20071;-72
2021/12/15 12:20:02;;;;;;;13.90;6.53;;;11.00;99.90;;;;;;5091049;28;20511;-72
2021/12/15 12:22:31;;;;;;;16.20;7.75;;;10.90;99.90;;;;;;5093821;28;20040;-73
2021/12/15 12:24:59;;;;;;;13.70;7.35;;;10.80;99.90;;;;;;5111771;28;20038;-72
2021/12/15 12:27:29;;;;;;;14.65;7.15;;;10.90;99.90;;;;;;5107785;28;20078;-72
2021/12/15 12:29:58;;;;;;;14.45;7.50;;;10.90;99.90;;;;;;5111681;28;20568;-72
2021/12/15 12:32:25;;;;;;;16.50;7.82;;;10.80;99.90;;;;;;5110719;28;20047;-72
2021/12/15 12:34:53;;;;;;;14.00;7.50;;;10.80;99.90;;;;;;5109576;28;20108;-73
2021/12/15 12:37:20;;;;;;;14.93;7.30;;;10.80;99.90;;;;;;5091641;28;20488;-73
2021/12/15 12:39:53;;;;;;;16.85;8.15;;;10.80;99.90;;;;;;5094073;28;20031;-72
2021/12/15 12:42:35;;;;;;;15.68;7.30;;;10.80;99.90;;;;;;5110238;28;20047;-72
2021/12/15 12:45:09;;;;;;;;;;;10.90;99.90;;;;;;5094223;28;20031;-73
2021/12/15 12:47:45;;;;;;;15.27;6.88;;;10.80;99.90;;;;;;5109667;28;20010;-73
2021/12/15 12:57:59;;;;;;;15.55;7.30;;;10.80;99.90;;;;;;5108893;28;20036;-73
2021/12/15 13:01:36;;;;;;;13.10;6.00;;;10.70;99.90;;;;;;5106368;28;20040;-72
2021/12/15 13:04:10;;;;;;;13.30;5.88;;;10.80;99.90;;;;;;5111105;28;20038;-72
2021/12/15 13:06:42;;;;;;;12.27;5.78;;;10.70;99.90;;;;;;5093503;28;20480;-72
2021/12/15 13:09:10;;;;;;;;;;;10.60;99.90;;;;;;5141640;27;20054;-72
2021/12/15 13:11:38;;;;;;;11.43;5.25;;;10.60;99.90;;;;;;5093371;28;20011;-72
2021/12/15 13:14:34;;;;;;;10.82;4.15;;;10.70;99.90;;;;;;5091499;28;20040;-72
2021/12/15 13:17:07;;;;;;;12.38;3.90;;;10.60;99.90;;;;;;5111012;28;20040;-72
2021/12/15 13:19:33;;;;;;;8.98;3.95;;;10.70;99.90;;;;;;5091250;28;20042;-72
2021/12/15 13:31:13;;;;;;;9.70;3.40;;;10.50;99.90;;;;;;5112380;28;20444;-72
2021/12/15 13:33:39;;;;;;;9.73;2.95;;;10.50;99.90;;;;;;5111486;28;20058;-72
2021/12/15 13:36:25;;;;;;;9.23;3.42;;;10.50;99.90;;;;;;5113874;28;20381;-72
2021/12/15 13:39:01;;;;;;;7.88;3.47;;;10.50;99.90;;;;;;5097508;28;20027;-72
2021/12/15 13:44:35;;;;;;;7.57;2.83;;;10.50;99.90;;;;;;5111446;28;20136;-72
2021/12/15 13:47:09;;;;;;;11.07;3.63;;;10.60;99.90;;;;;;5113599;28;20043;-71
2021/12/15 13:49:46;;;;;;;9.93;3.40;;;10.60;99.90;;;;;;5094384;28;20039;-72
2021/12/15 13:52:34;;;;;;;10.70;3.10;;;10.50;99.90;;;;;;5112886;28;20040;-72
2021/12/15 13:55:26;;;;;;;11.60;3.22;;;10.50;99.90;;;;;;5114285;28;20092;-72
2021/12/15 13:58:10;;;;;;;6.85;3.08;;;10.50;99.90;;;;;;5113966;28;20043;-72
2021/12/15 14:00:50;;;;;;;11.00;3.63;;;10.30;99.90;;;;;;5093258;28;20035;-72
2021/12/15 14:03:38;;;;;;;7.70;2.67;;;10.20;99.90;;;;;;5089714;28;20035;-72
2021/12/15 14:06:04;;;;;;;5.55;2.30;;;10.20;99.90;;;;;;5097189;28;20376;-72
2021/12/15 14:08:43;;;;;;;8.07;2.90;;;10.10;99.90;;;;;;5114513;28;20036;-72
2021/12/15 14:11:22;;;;;;;9.32;2.90;;;10.00;99.90;;;;;;5114003;28;20398;-72
2021/12/15 14:14:05;;;;;;;8.07;2.88;;;9.90;99.90;;;;;;5114030;28;20040;-72
2021/12/15 14:16:47;;;;;;;8.73;2.70;;;10.00;99.90;;;;;;5114064;28;20036;-72
2021/12/15 14:19:15;;;;;;;;;;;9.90;99.90;;;;;;5114508;28;20036;-72
2021/12/15 14:21:42;;;;;;;8.68;2.58;;;9.80;99.90;;;;;;5097167;28;19920;-72
2021/12/15 14:24:08;;;;;;;7.57;2.90;;;9.80;99.90;;;;;;5112214;28;20498;-72
2021/12/15 14:26:36;;;;;;;7.57;2.53;;;9.80;99.90;;;;;;5113842;28;20027;-72
2021/12/15 14:29:21;;;;;;;8.57;3.20;;;9.80;99.90;;;;;;5097132;28;20040;-72
2021/12/15 14:31:51;;;;;;;10.18;3.10;;;9.70;99.90;;;;;;5114247;28;20431;-72
2021/12/15 14:34:28;;;;;;;5.85;2.92;;;9.70;99.90;;;;;;5113443;28;20855;-72